sensor_id;sensor_type;location;lat;lon;timestamp;P1;durP1;ratioP1;P2;durP2;ratioP2
17790;SDS011;9019;48.132;-1.210;2024-03-22T00:00:56;22.97;;;10.73;;
17790;SDS011;9019;48.132;-1.210;2024-03-22T00:03:23;22.63;;;10.30;;
17790;SDS011;9019;48.132;-1.210;2024-03-22T00:05:51;14.40;;;9.77;;
17790;SDS011;9019;48.132;-1.210;2024-03-22T00:08:18;39.87;;;27.17;;
17790;SDS011;9019;48.132;-1.210;2024-03-22T00:10:44;19.53;;;13.10;;
17790;SDS011;9019;48.132;-1.210;2024-03-22T00:13:11;23.83;;;12.97;;
17790;SDS011;9019;48.132;-1.210;2024-03-22T00:15:37;21.37;;;10.67;;
17790;SDS011;9019;48.132;-1.210;2024-03-22T00:18:05;18.43;;;9.67;;
17790;SDS011;9019;48.132;-1.210;2024-03-22T00:20:31;17.73;;;10.10;;
17790;SDS011;9019;48.132;-1.210;2024-03-22T00:23:03;20.30;;;9.23;;
17790;SDS011;9019;48.132;-1.210;2024-03-22T00:25:29;26.53;;;10.00;;
17790;SDS011;9019;48.132;-1.210;2024-03-22T00:27:57;16.43;;;9.40;;
17790;SDS011;9019;48.132;-1.210;2024-03-22T00:30:23;30.30;;;9.67;;
17790;SDS011;9019;48.132;-1.210;2024-03-22T00:32:50;17.43;;;9.50;;
17790;SDS011;9019;48.132;-1.210;2024-03-22T00:35:16;23.37;;;9.97;;
17790;SDS011;9019;48.132;-1.210;2024-03-22T00:37:43;16.47;;;10.10;;
17790;SDS011;9019;48.132;-1.210;2024-03-22T00:40:12;19.43;;;9.93;;
17790;SDS011;9019;48.132;-1.210;2024-03-22T00:42:39;19.63;;;10.30;;
17790;SDS011;9019;48.132;-1.210;2024-03-22T00:45:05;24.27;;;9.80;;
17790;SDS011;9019;48.132;-1.210;2024-03-22T00:47:33;21.10;;;10.23;;
17790;SDS011;9019;48.132;-1.210;2024-03-22T00:49:59;18.77;;;9.97;;
17790;SDS011;9019;48.132;-1.210;2024-03-22T00:52:27;16.10;;;9.97;;
17790;SDS011;9019;48.132;-1.210;2024-03-22T00:54:53;18.20;;;9.80;;
17790;SDS011;9019;48.132;-1.210;2024-03-22T00:57:22;22.93;;;10.17;;
17790;SDS011;9019;48.132;-1.210;2024-03-22T00:59:49;19.80;;;10.13;;
17790;SDS011;9019;48.132;-1.210;2024-03-22T01:02:16;21.33;;;10.27;;
17790;SDS011;9019;48.132;-1.210;2024-03-22T01:04:42;23.10;;;10.13;;
17790;SDS011;9019;48.132;-1.210;2024-03-22T01:07:09;17.50;;;9.90;;
17790;SDS011;9019;48.132;-1.210;2024-03-22T01:09:35;18.87;;;9.83;;
17790;SDS011;9019;48.132;-1.210;2024-03-22T01:12:03;14.17;;;9.60;;
17790;SDS011;9019;48.132;-1.210;2024-03-22T01:14:31;16.40;;;9.73;;
17790;SDS011;9019;48.132;-1.210;2024-03-22T01:16:58;16.17;;;9.97;;
17790;SDS011;9019;48.132;-1.210;2024-03-22T01:19:25;17.70;;;9.63;;
17790;SDS011;9019;48.132;-1.210;2024-03-22T01:21:52;16.23;;;9.77;;
17790;SDS011;9019;48.132;-1.210;2024-03-22T01:24:18;15.87;;;8.93;;
17790;SDS011;9019;48.132;-1.210;2024-03-22T01:26:45;24.23;;;9.90;;
17790;SDS011;9019;48.132;-1.210;2024-03-22T01:29:13;22.13;;;9.87;;
17790;SDS011;9019;48.132;-1.210;2024-03-22T01:31:41;16.10;;;9.27;;
17790;SDS011;9019;48.132;-1.210;2024-03-22T01:34:08;27.03;;;9.70;;
17790;SDS011;9019;48.132;-1.210;2024-03-22T01:36:35;17.53;;;9.40;;
17790;SDS011;9019;48.132;-1.210;2024-03-22T01:39:01;18.50;;;9.37;;
17790;SDS011;9019;48.132;-1.210;2024-03-22T01:41:28;17.87;;;8.97;;
17790;SDS011;9019;48.132;-1.210;2024-03-22T01:43:54;22.13;;;9.57;;
17790;SDS011;9019;48.132;-1.210;2024-03-22T01:46:22;28.57;;;9.73;;
17790;SDS011;9019;48.132;-1.210;2024-03-22T01:48:49;28.10;;;9.53;;
17790;SDS011;9019;48.132;-1.210;2024-03-22T01:51:17;16.50;;;9.60;;
17790;SDS011;9019;48.132;-1.210;2024-03-22T01:53:43;15.43;;;9.43;;
17790;SDS011;9019;48.132;-1.210;2024-03-22T01:56:10;22.70;;;9.80;;
17790;SDS011;9019;48.132;-1.210;2024-03-22T01:58:36;33.93;;;10.57;;
17790;SDS011;9019;48.132;-1.210;2024-03-22T02:01:04;29.93;;;9.67;;
17790;SDS011;9019;48.132;-1.210;2024-03-22T02:03:30;25.60;;;9.87;;
17790;SDS011;9019;48.132;-1.210;2024-03-22T02:05:59;26.97;;;9.97;;
17790;SDS011;9019;48.132;-1.210;2024-03-22T02:08:25;38.63;;;9.87;;
17790;SDS011;9019;48.132;-1.210;2024-03-22T02:10:52;49.40;;;10.73;;
17790;SDS011;9019;48.132;-1.210;2024-03-22T02:13:18;41.03;;;9.93;;
17790;SDS011;9019;48.132;-1.210;2024-03-22T02:15:45;19.77;;;9.73;;
17790;SDS011;9019;48.132;-1.210;2024-03-22T02:18:12;20.37;;;10.10;;
17790;SDS011;9019;48.132;-1.210;2024-03-22T02:20:39;22.33;;;9.60;;
17790;SDS011;9019;48.132;-1.210;2024-03-22T02:23:06;23.20;;;10.00;;
17790;SDS011;9019;48.132;-1.210;2024-03-22T02:25:35;86.90;;;10.53;;
17790;SDS011;9019;48.132;-1.210;2024-03-22T02:28:01;54.50;;;10.27;;
17790;SDS011;9019;48.132;-1.210;2024-03-22T02:30:29;27.97;;;9.70;;
17790;SDS011;9019;48.132;-1.210;2024-03-22T02:32:55;37.73;;;9.60;;
17790;SDS011;9019;48.132;-1.210;2024-03-22T02:35:22;72.27;;;10.73;;
17790;SDS011;9019;48.132;-1.210;2024-03-22T02:37:48;15.13;;;9.27;;
17790;SDS011;9019;48.132;-1.210;2024-03-22T02:40:16;19.97;;;9.60;;
17790;SDS011;9019;48.132;-1.210;2024-03-22T02:42:43;17.07;;;9.60;;
17790;SDS011;9019;48.132;-1.210;2024-03-22T02:45:10;20.63;;;9.67;;
17790;SDS011;9019;48.132;-1.210;2024-03-22T02:47:37;27.17;;;10.03;;
17790;SDS011;9019;48.132;-1.210;2024-03-22T02:50:04;16.53;;;9.80;;
17790;SDS011;9019;48.132;-1.210;2024-03-22T02:52:31;52.30;;;9.80;;
17790;SDS011;9019;48.132;-1.210;2024-03-22T02:54:58;31.87;;;10.60;;
17790;SDS011;9019;48.132;-1.210;2024-03-22T02:57:24;17.97;;;8.83;;
17790;SDS011;9019;48.132;-1.210;2024-03-22T02:59:52;31.87;;;10.23;;
17790;SDS011;9019;48.132;-1.210;2024-03-22T03:02:19;45.30;;;10.73;;
17790;SDS011;9019;48.132;-1.210;2024-03-22T03:04:46;26.57;;;9.63;;
17790;SDS011;9019;48.132;-1.210;2024-03-22T03:07:12;26.00;;;10.27;;
17790;SDS011;9019;48.132;-1.210;2024-03-22T03:09:40;17.07;;;9.57;;
17790;SDS011;9019;48.132;-1.210;2024-03-22T03:12:06;52.93;;;10.70;;
17790;SDS011;9019;48.132;-1.210;2024-03-22T03:14:33;33.87;;;9.10;;
17790;SDS011;9019;48.132;-1.210;2024-03-22T03:17:01;19.33;;;9.63;;
17790;SDS011;9019;48.132;-1.210;2024-03-22T03:19:28;28.80;;;10.40;;
17790;SDS011;9019;48.132;-1.210;2024-03-22T03:21:54;29.10;;;9.70;;
17790;SDS011;9019;48.132;-1.210;2024-03-22T03:24:22;21.20;;;10.20;;
17790;SDS011;9019;48.132;-1.210;2024-03-22T03:26:48;16.73;;;10.00;;
17790;SDS011;9019;48.132;-1.210;2024-03-22T03:29:15;20.30;;;9.60;;
17790;SDS011;9019;48.132;-1.210;2024-03-22T03:31:41;29.33;;;10.37;;
17790;SDS011;9019;48.132;-1.210;2024-03-22T03:34:10;27.77;;;10.03;;
17790;SDS011;9019;48.132;-1.210;2024-03-22T03:36:36;24.20;;;9.40;;
17790;SDS011;9019;48.132;-1.210;2024-03-22T03:39:03;36.50;;;9.77;;
17790;SDS011;9019;48.132;-1.210;2024-03-22T03:41:29;18.47;;;10.03;;
17790;SDS011;9019;48.132;-1.210;2024-03-22T03:43:56;22.03;;;9.67;;
17790;SDS011;9019;48.132;-1.210;2024-03-22T03:46:23;15.53;;;9.57;;
17790;SDS011;9019;48.132;-1.210;2024-03-22T03:48:50;35.07;;;10.63;;
17790;SDS011;9019;48.132;-1.210;2024-03-22T03:51:18;22.00;;;10.17;;
17790;SDS011;9019;48.132;-1.210;2024-03-22T03:53:45;25.50;;;9.87;;
17790;SDS011;9019;48.132;-1.210;2024-03-22T03:56:11;17.03;;;10.00;;
17790;SDS011;9019;48.132;-1.210;2024-03-22T03:58:38;26.37;;;9.50;;
17790;SDS011;9019;48.132;-1.210;2024-03-22T04:01:05;16.67;;;10.00;;
17790;SDS011;9019;48.132;-1.210;2024-03-22T04:03:32;18.83;;;9.80;;
17790;SDS011;9019;48.132;-1.210;2024-03-22T04:05:59;35.57;;;9.30;;
17790;SDS011;9019;48.132;-1.210;2024-03-22T04:08:28;37.43;;;8.90;;
17790;SDS011;9019;48.132;-1.210;2024-03-22T04:10:56;55.27;;;9.80;;
17790;SDS011;9019;48.132;-1.210;2024-03-22T04:13:23;40.53;;;10.07;;
17790;SDS011;9019;48.132;-1.210;2024-03-22T04:15:49;49.57;;;9.50;;
17790;SDS011;9019;48.132;-1.210;2024-03-22T04:18:17;10.63;;;8.77;;
17790;SDS011;9019;48.132;-1.210;2024-03-22T04:20:52;12.53;;;8.70;;
17790;SDS011;9019;48.132;-1.210;2024-03-22T04:23:20;31.83;;;9.70;;
17790;SDS011;9019;48.132;-1.210;2024-03-22T04:25:52;21.67;;;10.07;;
17790;SDS011;9019;48.132;-1.210;2024-03-22T04:28:20;28.70;;;9.70;;
17790;SDS011;9019;48.132;-1.210;2024-03-22T04:30:53;27.87;;;9.70;;
17790;SDS011;9019;48.132;-1.210;2024-03-22T04:33:21;17.27;;;8.60;;
17790;SDS011;9019;48.132;-1.210;2024-03-22T04:35:47;24.70;;;9.00;;
17790;SDS011;9019;48.132;-1.210;2024-03-22T04:38:14;34.10;;;9.10;;
17790;SDS011;9019;48.132;-1.210;2024-03-22T04:40:41;27.73;;;10.67;;
17790;SDS011;9019;48.132;-1.210;2024-03-22T04:43:10;32.07;;;9.10;;
17790;SDS011;9019;48.132;-1.210;2024-03-22T04:45:37;23.57;;;9.37;;
17790;SDS011;9019;48.132;-1.210;2024-03-22T04:48:05;24.57;;;9.80;;
17790;SDS011;9019;48.132;-1.210;2024-03-22T04:50:31;24.33;;;9.73;;
17790;SDS011;9019;48.132;-1.210;2024-03-22T04:52:58;15.90;;;9.10;;
17790;SDS011;9019;48.132;-1.210;2024-03-22T04:55:24;25.53;;;9.30;;
17790;SDS011;9019;48.132;-1.210;2024-03-22T04:57:52;23.97;;;9.17;;
17790;SDS011;9019;48.132;-1.210;2024-03-22T05:00:19;14.83;;;8.60;;
17790;SDS011;9019;48.132;-1.210;2024-03-22T05:02:47;16.83;;;8.30;;
17790;SDS011;9019;48.132;-1.210;2024-03-22T05:05:13;14.20;;;8.27;;
17790;SDS011;9019;48.132;-1.210;2024-03-22T05:07:40;18.90;;;7.73;;
17790;SDS011;9019;48.132;-1.210;2024-03-22T05:10:06;20.30;;;7.60;;
17790;SDS011;9019;48.132;-1.210;2024-03-22T05:12:34;20.30;;;8.57;;
17790;SDS011;9019;48.132;-1.210;2024-03-22T05:15:00;32.13;;;8.53;;
17790;SDS011;9019;48.132;-1.210;2024-03-22T05:17:29;38.30;;;8.60;;
17790;SDS011;9019;48.132;-1.210;2024-03-22T05:19:57;29.87;;;8.77;;
17790;SDS011;9019;48.132;-1.210;2024-03-22T05:22:24;15.57;;;8.37;;
17790;SDS011;9019;48.132;-1.210;2024-03-22T05:24:50;18.73;;;9.07;;
17790;SDS011;9019;48.132;-1.210;2024-03-22T05:27:18;16.40;;;8.90;;
17790;SDS011;9019;48.132;-1.210;2024-03-22T05:29:44;15.17;;;8.77;;
17790;SDS011;9019;48.132;-1.210;2024-03-22T05:32:11;38.33;;;8.80;;
17790;SDS011;9019;48.132;-1.210;2024-03-22T05:34:39;46.60;;;9.27;;
17790;SDS011;9019;48.132;-1.210;2024-03-22T05:37:06;18.83;;;8.60;;
17790;SDS011;9019;48.132;-1.210;2024-03-22T05:39:34;17.37;;;8.73;;
17790;SDS011;9019;48.132;-1.210;2024-03-22T05:42:01;30.33;;;9.27;;
17790;SDS011;9019;48.132;-1.210;2024-03-22T05:44:27;48.93;;;9.07;;
17790;SDS011;9019;48.132;-1.210;2024-03-22T05:46:54;33.20;;;8.63;;
17790;SDS011;9019;48.132;-1.210;2024-03-22T05:49:21;22.17;;;9.17;;
17790;SDS011;9019;48.132;-1.210;2024-03-22T05:51:49;20.60;;;9.40;;
17790;SDS011;9019;48.132;-1.210;2024-03-22T05:54:15;34.53;;;9.70;;
17790;SDS011;9019;48.132;-1.210;2024-03-22T05:56:43;26.40;;;9.07;;
17790;SDS011;9019;48.132;-1.210;2024-03-22T05:59:09;31.33;;;9.13;;
17790;SDS011;9019;48.132;-1.210;2024-03-22T06:01:36;24.07;;;9.53;;
17790;SDS011;9019;48.132;-1.210;2024-03-22T06:04:03;22.63;;;9.67;;
17790;SDS011;9019;48.132;-1.210;2024-03-22T06:06:31;30.83;;;10.07;;
17790;SDS011;9019;48.132;-1.210;2024-03-22T06:08:59;15.97;;;9.40;;
17790;SDS011;9019;48.132;-1.210;2024-03-22T06:11:29;42.43;;;9.50;;
17790;SDS011;9019;48.132;-1.210;2024-03-22T06:13:55;39.20;;;9.70;;
17790;SDS011;9019;48.132;-1.210;2024-03-22T06:16:22;36.47;;;9.20;;
17790;SDS011;9019;48.132;-1.210;2024-03-22T06:18:48;34.47;;;9.87;;
17790;SDS011;9019;48.132;-1.210;2024-03-22T06:21:15;26.23;;;9.97;;
17790;SDS011;9019;48.132;-1.210;2024-03-22T06:23:47;22.97;;;9.67;;
17790;SDS011;9019;48.132;-1.210;2024-03-22T06:26:15;35.70;;;10.03;;
17790;SDS011;9019;48.132;-1.210;2024-03-22T06:28:41;33.93;;;9.37;;
17790;SDS011;9019;48.132;-1.210;2024-03-22T06:31:09;12.77;;;9.40;;
17790;SDS011;9019;48.132;-1.210;2024-03-22T06:33:35;26.13;;;9.43;;
17790;SDS011;9019;48.132;-1.210;2024-03-22T06:36:02;26.10;;;10.10;;
17790;SDS011;9019;48.132;-1.210;2024-03-22T06:38:28;26.87;;;9.40;;
17790;SDS011;9019;48.132;-1.210;2024-03-22T06:40:56;29.87;;;9.10;;
17790;SDS011;9019;48.132;-1.210;2024-03-22T06:43:25;30.93;;;9.37;;
17790;SDS011;9019;48.132;-1.210;2024-03-22T06:45:52;27.47;;;9.20;;
17790;SDS011;9019;48.132;-1.210;2024-03-22T06:48:18;24.80;;;9.87;;
17790;SDS011;9019;48.132;-1.210;2024-03-22T06:50:46;17.53;;;9.07;;
17790;SDS011;9019;48.132;-1.210;2024-03-22T06:53:12;15.80;;;9.50;;
17790;SDS011;9019;48.132;-1.210;2024-03-22T06:55:39;16.67;;;10.07;;
17790;SDS011;9019;48.132;-1.210;2024-03-22T06:58:05;21.37;;;9.70;;
17790;SDS011;9019;48.132;-1.210;2024-03-22T07:00:34;19.27;;;10.70;;
17790;SDS011;9019;48.132;-1.210;2024-03-22T07:03:00;19.87;;;10.33;;
17790;SDS011;9019;48.132;-1.210;2024-03-22T07:05:28;14.57;;;10.33;;
17790;SDS011;9019;48.132;-1.210;2024-03-22T07:07:54;18.37;;;10.43;;
17790;SDS011;9019;48.132;-1.210;2024-03-22T07:10:22;22.53;;;10.17;;
17790;SDS011;9019;48.132;-1.210;2024-03-22T07:12:52;14.50;;;9.93;;
17790;SDS011;9019;48.132;-1.210;2024-03-22T07:15:20;16.27;;;9.70;;
17790;SDS011;9019;48.132;-1.210;2024-03-22T07:17:47;15.70;;;10.33;;
17790;SDS011;9019;48.132;-1.210;2024-03-22T07:20:15;15.50;;;10.67;;
17790;SDS011;9019;48.132;-1.210;2024-03-22T07:22:44;16.57;;;9.77;;
17790;SDS011;9019;48.132;-1.210;2024-03-22T07:25:11;15.47;;;9.77;;
17790;SDS011;9019;48.132;-1.210;2024-03-22T07:27:37;13.37;;;9.77;;
17790;SDS011;9019;48.132;-1.210;2024-03-22T07:30:05;14.60;;;10.10;;
17790;SDS011;9019;48.132;-1.210;2024-03-22T07:32:31;14.77;;;10.43;;
17790;SDS011;9019;48.132;-1.210;2024-03-22T07:34:59;15.20;;;10.53;;
17790;SDS011;9019;48.132;-1.210;2024-03-22T07:37:26;12.33;;;9.80;;
17790;SDS011;9019;48.132;-1.210;2024-03-22T07:39:53;13.97;;;10.20;;
17790;SDS011;9019;48.132;-1.210;2024-03-22T07:42:19;11.57;;;9.23;;
17790;SDS011;9019;48.132;-1.210;2024-03-22T07:44:46;15.13;;;9.57;;
17790;SDS011;9019;48.132;-1.210;2024-03-22T07:47:13;15.70;;;9.47;;
17790;SDS011;9019;48.132;-1.210;2024-03-22T07:49:40;15.37;;;10.10;;
17790;SDS011;9019;48.132;-1.210;2024-03-22T07:52:08;12.73;;;9.50;;
17790;SDS011;9019;48.132;-1.210;2024-03-22T07:54:35;17.57;;;9.53;;
17790;SDS011;9019;48.132;-1.210;2024-03-22T07:57:01;12.83;;;9.70;;
17790;SDS011;9019;48.132;-1.210;2024-03-22T07:59:29;11.60;;;8.93;;
17790;SDS011;9019;48.132;-1.210;2024-03-22T08:01:55;12.23;;;8.67;;
17790;SDS011;9019;48.132;-1.210;2024-03-22T08:04:23;16.27;;;8.53;;
17790;SDS011;9019;48.132;-1.210;2024-03-22T08:06:50;11.13;;;9.00;;
17790;SDS011;9019;48.132;-1.210;2024-03-22T08:09:18;12.00;;;8.60;;
17790;SDS011;9019;48.132;-1.210;2024-03-22T08:11:45;15.13;;;9.10;;
17790;SDS011;9019;48.132;-1.210;2024-03-22T08:14:13;11.97;;;8.93;;
17790;SDS011;9019;48.132;-1.210;2024-03-22T08:16:39;13.77;;;9.60;;
17790;SDS011;9019;48.132;-1.210;2024-03-22T08:19:06;13.30;;;8.97;;
17790;SDS011;9019;48.132;-1.210;2024-03-22T08:21:32;10.77;;;8.47;;
17790;SDS011;9019;48.132;-1.210;2024-03-22T08:23:59;12.33;;;8.57;;
17790;SDS011;9019;48.132;-1.210;2024-03-22T08:26:27;13.57;;;9.70;;
17790;SDS011;9019;48.132;-1.210;2024-03-22T08:28:54;12.57;;;9.23;;
17790;SDS011;9019;48.132;-1.210;2024-03-22T08:31:20;12.37;;;8.97;;
17790;SDS011;9019;48.132;-1.210;2024-03-22T08:33:50;11.07;;;8.93;;
17790;SDS011;9019;48.132;-1.210;2024-03-22T08:36:16;13.00;;;9.50;;
17790;SDS011;9019;48.132;-1.210;2024-03-22T08:38:44;15.63;;;9.90;;
17790;SDS011;9019;48.132;-1.210;2024-03-22T08:41:10;12.77;;;9.50;;
17790;SDS011;9019;48.132;-1.210;2024-03-22T08:43:39;13.70;;;9.67;;
17790;SDS011;9019;48.132;-1.210;2024-03-22T08:46:05;13.47;;;10.13;;
17790;SDS011;9019;48.132;-1.210;2024-03-22T08:48:32;13.77;;;10.37;;
17790;SDS011;9019;48.132;-1.210;2024-03-22T08:50:58;14.87;;;9.97;;
17790;SDS011;9019;48.132;-1.210;2024-03-22T08:53:26;13.70;;;10.17;;
17790;SDS011;9019;48.132;-1.210;2024-03-22T08:55:53;13.17;;;10.23;;
17790;SDS011;9019;48.132;-1.210;2024-03-22T08:58:20;13.07;;;10.13;;
17790;SDS011;9019;48.132;-1.210;2024-03-22T09:00:48;16.47;;;10.40;;
17790;SDS011;9019;48.132;-1.210;2024-03-22T09:03:15;20.60;;;11.47;;
17790;SDS011;9019;48.132;-1.210;2024-03-22T09:05:43;16.20;;;10.93;;
17790;SDS011;9019;48.132;-1.210;2024-03-22T09:08:10;13.50;;;10.07;;
17790;SDS011;9019;48.132;-1.210;2024-03-22T09:10:36;12.63;;;10.00;;
17790;SDS011;9019;48.132;-1.210;2024-03-22T09:13:03;13.50;;;10.53;;
17790;SDS011;9019;48.132;-1.210;2024-03-22T09:15:29;14.27;;;10.57;;
17790;SDS011;9019;48.132;-1.210;2024-03-22T09:17:58;14.83;;;11.10;;
17790;SDS011;9019;48.132;-1.210;2024-03-22T09:20:24;22.53;;;11.90;;
17790;SDS011;9019;48.132;-1.210;2024-03-22T09:22:52;16.03;;;11.17;;
17790;SDS011;9019;48.132;-1.210;2024-03-22T09:25:18;14.97;;;10.20;;
17790;SDS011;9019;48.132;-1.210;2024-03-22T09:27:46;15.13;;;10.50;;
17790;SDS011;9019;48.132;-1.210;2024-03-22T09:30:12;17.60;;;10.47;;
17790;SDS011;9019;48.132;-1.210;2024-03-22T09:32:39;18.33;;;11.10;;
17790;SDS011;9019;48.132;-1.210;2024-03-22T09:35:07;15.77;;;10.30;;
17790;SDS011;9019;48.132;-1.210;2024-03-22T09:37:35;17.40;;;11.07;;
17790;SDS011;9019;48.132;-1.210;2024-03-22T09:40:01;15.93;;;10.67;;
17790;SDS011;9019;48.132;-1.210;2024-03-22T09:42:32;13.13;;;9.43;;
17790;SDS011;9019;48.132;-1.210;2024-03-22T09:44:58;12.77;;;9.40;;
17790;SDS011;9019;48.132;-1.210;2024-03-22T09:47:27;13.03;;;9.77;;
17790;SDS011;9019;48.132;-1.210;2024-03-22T09:49:53;13.73;;;9.63;;
17790;SDS011;9019;48.132;-1.210;2024-03-22T09:52:22;14.47;;;9.53;;
17790;SDS011;9019;48.132;-1.210;2024-03-22T09:54:49;12.90;;;9.47;;
17790;SDS011;9019;48.132;-1.210;2024-03-22T09:57:17;11.87;;;8.80;;
17790;SDS011;9019;48.132;-1.210;2024-03-22T09:59:43;12.17;;;8.60;;
17790;SDS011;9019;48.132;-1.210;2024-03-22T10:02:11;10.27;;;8.30;;
17790;SDS011;9019;48.132;-1.210;2024-03-22T10:04:37;9.77;;;8.17;;
17790;SDS011;9019;48.132;-1.210;2024-03-22T10:07:05;10.50;;;8.10;;
17790;SDS011;9019;48.132;-1.210;2024-03-22T10:09:34;10.17;;;8.27;;
17790;SDS011;9019;48.132;-1.210;2024-03-22T10:12:02;9.77;;;7.43;;
17790;SDS011;9019;48.132;-1.210;2024-03-22T10:14:29;8.37;;;7.30;;
17790;SDS011;9019;48.132;-1.210;2024-03-22T10:16:57;9.60;;;7.40;;
17790;SDS011;9019;48.132;-1.210;2024-03-22T10:19:23;8.07;;;6.70;;
17790;SDS011;9019;48.132;-1.210;2024-03-22T10:21:59;7.80;;;6.63;;
17790;SDS011;9019;48.132;-1.210;2024-03-22T10:24:25;9.80;;;7.33;;
17790;SDS011;9019;48.132;-1.210;2024-03-22T10:26:55;9.90;;;7.13;;
17790;SDS011;9019;48.132;-1.210;2024-03-22T10:29:21;9.53;;;7.50;;
17790;SDS011;9019;48.132;-1.210;2024-03-22T10:31:49;9.50;;;7.10;;
17790;SDS011;9019;48.132;-1.210;2024-03-22T10:34:16;29.90;;;10.07;;
17790;SDS011;9019;48.132;-1.210;2024-03-22T10:36:43;11.37;;;7.43;;
17790;SDS011;9019;48.132;-1.210;2024-03-22T10:39:10;16.30;;;7.23;;
17790;SDS011;9019;48.132;-1.210;2024-03-22T10:41:37;9.73;;;7.13;;
17790;SDS011;9019;48.132;-1.210;2024-03-22T10:44:05;10.43;;;7.33;;
17790;SDS011;9019;48.132;-1.210;2024-03-22T10:46:34;9.17;;;6.90;;
17790;SDS011;9019;48.132;-1.210;2024-03-22T10:49:00;9.63;;;6.67;;
17790;SDS011;9019;48.132;-1.210;2024-03-22T10:51:29;8.23;;;6.00;;
17790;SDS011;9019;48.132;-1.210;2024-03-22T10:53:56;7.57;;;6.70;;
17790;SDS011;9019;48.132;-1.210;2024-03-22T10:56:25;8.50;;;6.30;;
17790;SDS011;9019;48.132;-1.210;2024-03-22T10:58:51;7.97;;;6.47;;
17790;SDS011;9019;48.132;-1.210;2024-03-22T11:01:23;6.83;;;6.13;;
17790;SDS011;9019;48.132;-1.210;2024-03-22T11:03:49;6.60;;;5.43;;
17790;SDS011;9019;48.132;-1.210;2024-03-22T11:06:19;8.00;;;6.30;;
17790;SDS011;9019;48.132;-1.210;2024-03-22T11:08:49;7.30;;;5.83;;
17790;SDS011;9019;48.132;-1.210;2024-03-22T11:11:17;6.03;;;5.30;;
17790;SDS011;9019;48.132;-1.210;2024-03-22T11:13:46;6.73;;;6.00;;
17790;SDS011;9019;48.132;-1.210;2024-03-22T11:16:14;6.07;;;5.10;;
17790;SDS011;9019;48.132;-1.210;2024-03-22T11:18:42;5.93;;;5.28;;
17790;SDS011;9019;48.132;-1.210;2024-03-22T11:21:09;6.25;;;5.57;;
17790;SDS011;9019;48.132;-1.210;2024-03-22T11:23:35;5.70;;;5.15;;
17790;SDS011;9019;48.132;-1.210;2024-03-22T11:26:03;5.80;;;5.30;;
17790;SDS011;9019;48.132;-1.210;2024-03-22T11:28:29;5.05;;;4.50;;
17790;SDS011;9019;48.132;-1.210;2024-03-22T11:30:56;5.22;;;4.72;;
17790;SDS011;9019;48.132;-1.210;2024-03-22T11:33:22;6.28;;;4.90;;
17790;SDS011;9019;48.132;-1.210;2024-03-22T11:35:53;5.97;;;5.38;;
17790;SDS011;9019;48.132;-1.210;2024-03-22T11:38:19;5.47;;;4.97;;
17790;SDS011;9019;48.132;-1.210;2024-03-22T11:40:46;5.65;;;5.15;;
17790;SDS011;9019;48.132;-1.210;2024-03-22T11:43:13;5.38;;;4.88;;
17790;SDS011;9019;48.132;-1.210;2024-03-22T11:45:42;6.32;;;5.38;;
17790;SDS011;9019;48.132;-1.210;2024-03-22T11:48:08;5.53;;;5.03;;
17790;SDS011;9019;48.132;-1.210;2024-03-22T11:50:36;6.95;;;5.75;;
17790;SDS011;9019;48.132;-1.210;2024-03-22T11:53:05;5.85;;;5.25;;
17790;SDS011;9019;48.132;-1.210;2024-03-22T11:55:32;6.63;;;5.25;;
17790;SDS011;9019;48.132;-1.210;2024-03-22T11:57:58;6.10;;;5.50;;
17790;SDS011;9019;48.132;-1.210;2024-03-22T12:00:25;6.72;;;5.88;;
17790;SDS011;9019;48.132;-1.210;2024-03-22T12:02:52;5.95;;;5.35;;
17790;SDS011;9019;48.132;-1.210;2024-03-22T12:05:20;6.03;;;5.20;;
17790;SDS011;9019;48.132;-1.210;2024-03-22T12:07:46;5.97;;;5.38;;
17790;SDS011;9019;48.132;-1.210;2024-03-22T12:10:15;6.45;;;5.72;;
17790;SDS011;9019;48.132;-1.210;2024-03-22T12:12:42;6.35;;;5.65;;
17790;SDS011;9019;48.132;-1.210;2024-03-22T12:15:09;5.90;;;5.30;;
17790;SDS011;9019;48.132;-1.210;2024-03-22T12:17:36;5.90;;;5.28;;
17790;SDS011;9019;48.132;-1.210;2024-03-22T12:20:05;6.72;;;5.78;;
17790;SDS011;9019;48.132;-1.210;2024-03-22T12:22:33;6.03;;;5.40;;
17790;SDS011;9019;48.132;-1.210;2024-03-22T12:24:59;5.78;;;5.18;;
17790;SDS011;9019;48.132;-1.210;2024-03-22T12:27:28;7.38;;;5.70;;
17790;SDS011;9019;48.132;-1.210;2024-03-22T12:29:54;6.82;;;6.10;;
17790;SDS011;9019;48.132;-1.210;2024-03-22T12:32:21;5.97;;;5.38;;
17790;SDS011;9019;48.132;-1.210;2024-03-22T12:34:48;6.38;;;5.40;;
17790;SDS011;9019;48.132;-1.210;2024-03-22T12:37:15;6.28;;;5.20;;
17790;SDS011;9019;48.132;-1.210;2024-03-22T12:39:41;6.75;;;6.05;;
17790;SDS011;9019;48.132;-1.210;2024-03-22T12:42:08;6.47;;;5.35;;
17790;SDS011;9019;48.132;-1.210;2024-03-22T12:44:37;7.47;;;5.07;;
17790;SDS011;9019;48.132;-1.210;2024-03-22T12:47:03;6.30;;;5.72;;
17790;SDS011;9019;48.132;-1.210;2024-03-22T12:49:30;5.60;;;5.10;;
17790;SDS011;9019;48.132;-1.210;2024-03-22T12:51:57;6.40;;;5.80;;
17790;SDS011;9019;48.132;-1.210;2024-03-22T12:54:24;5.60;;;5.10;;
17790;SDS011;9019;48.132;-1.210;2024-03-22T12:56:51;5.75;;;5.22;;
17790;SDS011;9019;48.132;-1.210;2024-03-22T12:59:19;7.38;;;5.03;;
17790;SDS011;9019;48.132;-1.210;2024-03-22T13:01:46;5.68;;;5.18;;
17790;SDS011;9019;48.132;-1.210;2024-03-22T13:04:14;5.55;;;4.95;;
17790;SDS011;9019;48.132;-1.210;2024-03-22T13:06:40;6.00;;;5.40;;
17790;SDS011;9019;48.132;-1.210;2024-03-22T13:09:07;5.63;;;5.05;;
17790;SDS011;9019;48.132;-1.210;2024-03-22T13:11:34;5.53;;;5.03;;
17790;SDS011;9019;48.132;-1.210;2024-03-22T13:14:02;6.05;;;5.55;;
17790;SDS011;9019;48.132;-1.210;2024-03-22T13:16:28;6.13;;;5.53;;
17790;SDS011;9019;48.132;-1.210;2024-03-22T13:18:57;5.28;;;4.75;;
17790;SDS011;9019;48.132;-1.210;2024-03-22T13:21:23;5.20;;;4.70;;
17790;SDS011;9019;48.132;-1.210;2024-03-22T13:23:52;6.22;;;5.63;;
17790;SDS011;9019;48.132;-1.210;2024-03-22T13:26:18;5.32;;;4.82;;
17790;SDS011;9019;48.132;-1.210;2024-03-22T13:28:45;7.00;;;6.30;;
17790;SDS011;9019;48.132;-1.210;2024-03-22T13:31:12;8.15;;;6.25;;
17790;SDS011;9019;48.132;-1.210;2024-03-22T13:33:40;7.15;;;5.75;;
17790;SDS011;9019;48.132;-1.210;2024-03-22T13:36:08;6.18;;;5.57;;
17790;SDS011;9019;48.132;-1.210;2024-03-22T13:38:35;6.35;;;5.72;;
17790;SDS011;9019;48.132;-1.210;2024-03-22T13:41:02;6.18;;;5.57;;
17790;SDS011;9019;48.132;-1.210;2024-03-22T13:43:31;7.15;;;5.43;;
17790;SDS011;9019;48.132;-1.210;2024-03-22T13:45:57;6.57;;;5.90;;
17790;SDS011;9019;48.132;-1.210;2024-03-22T13:48:24;6.25;;;5.65;;
17790;SDS011;9019;48.132;-1.210;2024-03-22T13:50:51;6.43;;;5.82;;
17790;SDS011;9019;48.132;-1.210;2024-03-22T13:53:19;5.90;;;5.30;;
17790;SDS011;9019;48.132;-1.210;2024-03-22T13:55:47;6.03;;;5.43;;
17790;SDS011;9019;48.132;-1.210;2024-03-22T13:58:14;5.80;;;5.20;;
17790;SDS011;9019;48.132;-1.210;2024-03-22T14:00:40;6.30;;;5.65;;
17790;SDS011;9019;48.132;-1.210;2024-03-22T14:03:08;6.85;;;6.00;;
17790;SDS011;9019;48.132;-1.210;2024-03-22T14:05:34;6.18;;;5.57;;
17790;SDS011;9019;48.132;-1.210;2024-03-22T14:08:01;6.25;;;5.22;;
17790;SDS011;9019;48.132;-1.210;2024-03-22T14:10:30;6.68;;;5.90;;
17790;SDS011;9019;48.132;-1.210;2024-03-22T14:12:57;5.75;;;5.15;;
17790;SDS011;9019;48.132;-1.210;2024-03-22T14:15:25;6.80;;;6.20;;
17790;SDS011;9019;48.132;-1.210;2024-03-22T14:17:52;6.63;;;6.00;;
17790;SDS011;9019;48.132;-1.210;2024-03-22T14:20:20;6.65;;;6.05;;
17790;SDS011;9019;48.132;-1.210;2024-03-22T14:22:46;6.70;;;5.97;;
17790;SDS011;9019;48.132;-1.210;2024-03-22T14:25:14;7.03;;;6.38;;
17790;SDS011;9019;48.132;-1.210;2024-03-22T14:27:41;6.88;;;5.88;;
17790;SDS011;9019;48.132;-1.210;2024-03-22T14:30:10;5.28;;;4.50;;
17790;SDS011;9019;48.132;-1.210;2024-03-22T14:32:38;5.75;;;5.25;;
17790;SDS011;9019;48.132;-1.210;2024-03-22T14:35:05;6.90;;;6.20;;